sensor_id;sensor_type;location;lat;lon;timestamp;P1;durP1;ratioP1;P2;durP2;ratioP2
55758;SDS011;41678;52.126;20.664;2023-09-30T00:01:39;22.52;;;8.10;;
55758;SDS011;41678;52.126;20.664;2023-09-30T00:06:58;16.67;;;7.05;;
55758;SDS011;41678;52.126;20.664;2023-09-30T00:12:17;20.05;;;6.88;;
55758;SDS011;41678;52.126;20.664;2023-09-30T00:17:37;17.80;;;7.03;;
55758;SDS011;41678;52.126;20.664;2023-09-30T00:22:57;18.45;;;7.38;;
55758;SDS011;41678;52.126;20.664;2023-09-30T00:28:17;13.65;;;6.78;;
55758;SDS011;41678;52.126;20.664;2023-09-30T00:33:36;13.98;;;6.72;;
55758;SDS011;41678;52.126;20.664;2023-09-30T00:38:56;17.73;;;7.85;;
55758;SDS011;41678;52.126;20.664;2023-09-30T00:44:15;13.88;;;6.78;;
55758;SDS011;41678;52.126;20.664;2023-09-30T00:49:35;16.35;;;6.53;;
55758;SDS011;41678;52.126;20.664;2023-09-30T00:54:54;15.43;;;6.85;;
55758;SDS011;41678;52.126;20.664;2023-09-30T01:00:14;14.05;;;6.68;;
55758;SDS011;41678;52.126;20.664;2023-09-30T01:05:36;32.00;;;7.20;;
55758;SDS011;41678;52.126;20.664;2023-09-30T01:10:55;20.85;;;7.72;;
55758;SDS011;41678;52.126;20.664;2023-09-30T01:16:15;13.02;;;6.82;;
55758;SDS011;41678;52.126;20.664;2023-09-30T01:21:35;15.80;;;7.15;;
55758;SDS011;41678;52.126;20.664;2023-09-30T01:26:54;19.27;;;7.43;;
55758;SDS011;41678;52.126;20.664;2023-09-30T01:32:15;12.23;;;6.47;;
55758;SDS011;41678;52.126;20.664;2023-09-30T01:37:34;13.68;;;7.40;;
55758;SDS011;41678;52.126;20.664;2023-09-30T01:42:55;16.07;;;6.77;;
55758;SDS011;41678;52.126;20.664;2023-09-30T01:48:15;13.97;;;6.50;;
55758;SDS011;41678;52.126;20.664;2023-09-30T01:53:35;17.92;;;7.65;;
55758;SDS011;41678;52.126;20.664;2023-09-30T01:58:54;16.42;;;6.47;;
55758;SDS011;41678;52.126;20.664;2023-09-30T02:04:13;13.95;;;7.03;;
55758;SDS011;41678;52.126;20.664;2023-09-30T02:09:34;21.35;;;7.03;;
55758;SDS011;41678;52.126;20.664;2023-09-30T02:14:54;14.47;;;6.57;;
55758;SDS011;41678;52.126;20.664;2023-09-30T02:20:14;15.70;;;6.40;;
55758;SDS011;41678;52.126;20.664;2023-09-30T02:25:38;12.40;;;6.00;;
55758;SDS011;41678;52.126;20.664;2023-09-30T02:30:59;19.20;;;6.85;;
55758;SDS011;41678;52.126;20.664;2023-09-30T02:36:20;13.50;;;6.50;;
55758;SDS011;41678;52.126;20.664;2023-09-30T02:41:39;14.05;;;6.88;;
55758;SDS011;41678;52.126;20.664;2023-09-30T02:46:59;16.75;;;6.82;;
55758;SDS011;41678;52.126;20.664;2023-09-30T02:52:18;13.98;;;6.65;;
55758;SDS011;41678;52.126;20.664;2023-09-30T02:57:38;16.38;;;6.35;;
55758;SDS011;41678;52.126;20.664;2023-09-30T03:02:59;15.57;;;6.55;;
55758;SDS011;41678;52.126;20.664;2023-09-30T03:14:57;17.50;;;7.10;;
55758;SDS011;41678;52.126;20.664;2023-09-30T03:20:17;16.92;;;6.97;;
55758;SDS011;41678;52.126;20.664;2023-09-30T03:25:39;18.85;;;6.85;;
55758;SDS011;41678;52.126;20.664;2023-09-30T03:30:58;14.80;;;6.20;;
55758;SDS011;41678;52.126;20.664;2023-09-30T03:36:18;14.38;;;6.43;;
55758;SDS011;41678;52.126;20.664;2023-09-30T03:41:37;13.40;;;6.20;;
55758;SDS011;41678;52.126;20.664;2023-09-30T03:46:57;11.98;;;6.05;;
55758;SDS011;41678;52.126;20.664;2023-09-30T03:52:18;17.05;;;6.32;;
55758;SDS011;41678;52.126;20.664;2023-09-30T03:57:41;19.33;;;6.50;;
55758;SDS011;41678;52.126;20.664;2023-09-30T04:03:01;12.77;;;6.10;;
55758;SDS011;41678;52.126;20.664;2023-09-30T04:08:22;14.95;;;7.57;;
55758;SDS011;41678;52.126;20.664;2023-09-30T04:13:41;12.98;;;6.43;;
55758;SDS011;41678;52.126;20.664;2023-09-30T04:19:01;16.40;;;6.22;;
55758;SDS011;41678;52.126;20.664;2023-09-30T04:24:21;12.60;;;7.10;;
55758;SDS011;41678;52.126;20.664;2023-09-30T04:29:41;12.43;;;6.65;;
55758;SDS011;41678;52.126;20.664;2023-09-30T04:35:01;13.70;;;6.47;;
55758;SDS011;41678;52.126;20.664;2023-09-30T04:40:20;15.95;;;6.03;;
55758;SDS011;41678;52.126;20.664;2023-09-30T04:45:41;16.23;;;6.85;;
55758;SDS011;41678;52.126;20.664;2023-09-30T04:51:00;11.93;;;6.70;;
55758;SDS011;41678;52.126;20.664;2023-09-30T04:56:24;16.60;;;6.70;;
55758;SDS011;41678;52.126;20.664;2023-09-30T05:01:44;23.25;;;6.50;;
55758;SDS011;41678;52.126;20.664;2023-09-30T05:07:04;15.75;;;6.60;;
55758;SDS011;41678;52.126;20.664;2023-09-30T05:12:23;11.27;;;5.97;;
55758;SDS011;41678;52.126;20.664;2023-09-30T05:17:43;12.23;;;5.50;;
55758;SDS011;41678;52.126;20.664;2023-09-30T05:23:03;12.98;;;6.15;;
55758;SDS011;41678;52.126;20.664;2023-09-30T05:28:24;11.17;;;6.33;;
55758;SDS011;41678;52.126;20.664;2023-09-30T05:33:43;17.05;;;6.75;;
55758;SDS011;41678;52.126;20.664;2023-09-30T05:39:02;18.77;;;6.45;;
55758;SDS011;41678;52.126;20.664;2023-09-30T05:44:23;14.13;;;5.57;;
55758;SDS011;41678;52.126;20.664;2023-09-30T05:55:04;12.50;;;5.65;;
55758;SDS011;41678;52.126;20.664;2023-09-30T06:00:24;15.60;;;5.95;;
55758;SDS011;41678;52.126;20.664;2023-09-30T06:05:49;12.68;;;5.75;;
55758;SDS011;41678;52.126;20.664;2023-09-30T06:11:15;12.05;;;6.85;;
55758;SDS011;41678;52.126;20.664;2023-09-30T06:16:37;19.05;;;7.47;;
55758;SDS011;41678;52.126;20.664;2023-09-30T06:21:57;20.65;;;7.80;;
55758;SDS011;41678;52.126;20.664;2023-09-30T06:27:16;19.65;;;7.15;;
55758;SDS011;41678;52.126;20.664;2023-09-30T06:32:36;15.23;;;7.55;;
55758;SDS011;41678;52.126;20.664;2023-09-30T06:37:56;15.38;;;7.32;;
55758;SDS011;41678;52.126;20.664;2023-09-30T06:43:15;15.75;;;8.27;;
55758;SDS011;41678;52.126;20.664;2023-09-30T06:48:36;13.85;;;8.13;;
55758;SDS011;41678;52.126;20.664;2023-09-30T06:53:56;18.98;;;8.80;;
55758;SDS011;41678;52.126;20.664;2023-09-30T06:59:15;16.25;;;8.48;;
55758;SDS011;41678;52.126;20.664;2023-09-30T07:04:35;14.00;;;8.60;;
55758;SDS011;41678;52.126;20.664;2023-09-30T07:09:54;21.02;;;9.73;;
55758;SDS011;41678;52.126;20.664;2023-09-30T07:15:14;15.45;;;8.65;;
55758;SDS011;41678;52.126;20.664;2023-09-30T07:20:33;17.85;;;8.90;;
55758;SDS011;41678;52.126;20.664;2023-09-30T07:25:53;15.57;;;9.43;;
55758;SDS011;41678;52.126;20.664;2023-09-30T07:31:12;16.48;;;8.85;;
55758;SDS011;41678;52.126;20.664;2023-09-30T07:36:32;13.73;;;9.05;;
55758;SDS011;41678;52.126;20.664;2023-09-30T07:41:52;18.35;;;9.80;;
55758;SDS011;41678;52.126;20.664;2023-09-30T07:47:11;15.90;;;9.02;;
55758;SDS011;41678;52.126;20.664;2023-09-30T07:52:31;17.30;;;9.18;;
55758;SDS011;41678;52.126;20.664;2023-09-30T07:57:50;16.60;;;9.20;;
55758;SDS011;41678;52.126;20.664;2023-09-30T08:03:10;16.65;;;9.60;;
55758;SDS011;41678;52.126;20.664;2023-09-30T08:08:29;19.05;;;10.35;;
55758;SDS011;41678;52.126;20.664;2023-09-30T08:13:50;18.23;;;10.17;;
55758;SDS011;41678;52.126;20.664;2023-09-30T08:19:09;21.05;;;9.27;;
55758;SDS011;41678;52.126;20.664;2023-09-30T08:24:29;22.17;;;9.65;;
55758;SDS011;41678;52.126;20.664;2023-09-30T08:29:49;21.98;;;9.57;;
55758;SDS011;41678;52.126;20.664;2023-09-30T08:35:09;19.65;;;10.07;;
55758;SDS011;41678;52.126;20.664;2023-09-30T08:40:28;18.63;;;10.27;;
55758;SDS011;41678;52.126;20.664;2023-09-30T08:45:48;17.92;;;10.38;;
55758;SDS011;41678;52.126;20.664;2023-09-30T08:51:13;20.05;;;10.27;;
55758;SDS011;41678;52.126;20.664;2023-09-30T08:56:32;20.95;;;10.48;;
55758;SDS011;41678;52.126;20.664;2023-09-30T09:01:52;21.63;;;11.75;;
55758;SDS011;41678;52.126;20.664;2023-09-30T09:07:12;18.40;;;9.93;;
55758;SDS011;41678;52.126;20.664;2023-09-30T09:12:33;17.20;;;10.90;;
55758;SDS011;41678;52.126;20.664;2023-09-30T09:17:54;23.52;;;12.25;;
55758;SDS011;41678;52.126;20.664;2023-09-30T09:23:14;20.15;;;12.80;;
55758;SDS011;41678;52.126;20.664;2023-09-30T09:28:34;21.67;;;12.57;;
55758;SDS011;41678;52.126;20.664;2023-09-30T09:33:55;25.17;;;12.50;;
55758;SDS011;41678;52.126;20.664;2023-09-30T09:39:15;23.50;;;13.60;;
55758;SDS011;41678;52.126;20.664;2023-09-30T09:44:35;23.87;;;12.53;;
55758;SDS011;41678;52.126;20.664;2023-09-30T09:49:56;24.73;;;11.53;;
55758;SDS011;41678;52.126;20.664;2023-09-30T09:55:21;14.30;;;6.15;;
55758;SDS011;41678;52.126;20.664;2023-09-30T10:00:42;12.98;;;5.40;;
55758;SDS011;41678;52.126;20.664;2023-09-30T10:06:02;12.60;;;6.45;;
55758;SDS011;41678;52.126;20.664;2023-09-30T10:11:23;18.58;;;5.68;;
55758;SDS011;41678;52.126;20.664;2023-09-30T10:27:46;11.20;;;3.00;;
55758;SDS011;41678;52.126;20.664;2023-09-30T10:43:48;8.85;;;1.33;;
55758;SDS011;41678;52.126;20.664;2023-09-30T10:49:14;10.95;;;1.58;;
55758;SDS011;41678;52.126;20.664;2023-09-30T10:55:03;10.18;;;1.83;;
55758;SDS011;41678;52.126;20.664;2023-09-30T11:00:26;6.18;;;2.00;;
55758;SDS011;41678;52.126;20.664;2023-09-30T11:05:50;8.48;;;2.63;;
55758;SDS011;41678;52.126;20.664;2023-09-30T11:11:10;11.65;;;2.58;;
55758;SDS011;41678;52.126;20.664;2023-09-30T11:16:30;17.15;;;2.50;;
55758;SDS011;41678;52.126;20.664;2023-09-30T11:22:00;9.02;;;2.00;;
55758;SDS011;41678;52.126;20.664;2023-09-30T11:27:23;10.65;;;2.58;;
55758;SDS011;41678;52.126;20.664;2023-09-30T11:32:44;14.20;;;2.53;;
55758;SDS011;41678;52.126;20.664;2023-09-30T11:38:04;6.90;;;2.10;;
55758;SDS011;41678;52.126;20.664;2023-09-30T11:43:24;8.90;;;2.45;;
55758;SDS011;41678;52.126;20.664;2023-09-30T11:48:57;7.53;;;2.97;;
55758;SDS011;41678;52.126;20.664;2023-09-30T11:54:20;7.88;;;2.25;;
55758;SDS011;41678;52.126;20.664;2023-09-30T11:59:42;13.73;;;2.47;;
55758;SDS011;41678;52.126;20.664;2023-09-30T12:05:03;9.05;;;2.75;;
55758;SDS011;41678;52.126;20.664;2023-09-30T12:10:30;10.10;;;2.75;;
55758;SDS011;41678;52.126;20.664;2023-09-30T12:15:50;9.02;;;2.92;;
55758;SDS011;41678;52.126;20.664;2023-09-30T12:21:12;10.50;;;3.08;;
55758;SDS011;41678;52.126;20.664;2023-09-30T12:26:39;8.65;;;2.58;;
55758;SDS011;41678;52.126;20.664;2023-09-30T12:32:00;10.60;;;3.03;;
55758;SDS011;41678;52.126;20.664;2023-09-30T12:37:20;11.48;;;3.10;;
55758;SDS011;41678;52.126;20.664;2023-09-30T12:42:39;9.90;;;3.05;;
55758;SDS011;41678;52.126;20.664;2023-09-30T12:47:59;10.93;;;2.42;;
55758;SDS011;41678;52.126;20.664;2023-09-30T12:53:18;12.65;;;2.53;;
55758;SDS011;41678;52.126;20.664;2023-09-30T12:58:38;10.45;;;2.40;;
55758;SDS011;41678;52.126;20.664;2023-09-30T13:03:58;9.38;;;3.20;;
55758;SDS011;41678;52.126;20.664;2023-09-30T13:09:18;15.38;;;2.72;;
55758;SDS011;41678;52.126;20.664;2023-09-30T13:14:38;10.27;;;2.40;;
55758;SDS011;41678;52.126;20.664;2023-09-30T13:19:58;9.43;;;2.00;;
55758;SDS011;41678;52.126;20.664;2023-09-30T13:25:17;10.70;;;1.85;;
55758;SDS011;41678;52.126;20.664;2023-09-30T13:30:39;12.55;;;2.47;;
55758;SDS011;41678;52.126;20.664;2023-09-30T13:35:58;11.98;;;3.05;;
55758;SDS011;41678;52.126;20.664;2023-09-30T13:41:18;12.98;;;2.30;;
55758;SDS011;41678;52.126;20.664;2023-09-30T13:46:37;11.55;;;1.77;;
55758;SDS011;41678;52.126;20.664;2023-09-30T13:51:57;11.70;;;2.38;;
55758;SDS011;41678;52.126;20.664;2023-09-30T13:57:16;12.38;;;2.35;;
55758;SDS011;41678;52.126;20.664;2023-09-30T14:02:35;15.70;;;2.72;;
55758;SDS011;41678;52.126;20.664;2023-09-30T14:07:55;9.85;;;2.17;;
55758;SDS011;41678;52.126;20.664;2023-09-30T14:13:15;14.60;;;2.38;;
55758;SDS011;41678;52.126;20.664;2023-09-30T14:18:34;14.63;;;2.97;;
55758;SDS011;41678;52.126;20.664;2023-09-30T14:29:15;12.77;;;3.17;;
55758;SDS011;41678;52.126;20.664;2023-09-30T14:34:34;16.05;;;2.58;;
55758;SDS011;41678;52.126;20.664;2023-09-30T14:39:57;11.25;;;3.03;;
55758;SDS011;41678;52.126;20.664;2023-09-30T14:45:16;13.02;;;2.83;;
55758;SDS011;41678;52.126;20.664;2023-09-30T14:50:36;12.45;;;2.95;;
55758;SDS011;41678;52.126;20.664;2023-09-30T14:55:56;14.40;;;2.20;;
55758;SDS011;41678;52.126;20.664;2023-09-30T15:01:15;15.18;;;3.03;;
55758;SDS011;41678;52.126;20.664;2023-09-30T15:06:35;11.68;;;2.40;;
55758;SDS011;41678;52.126;20.664;2023-09-30T15:11:55;10.57;;;2.73;;
55758;SDS011;41678;52.126;20.664;2023-09-30T15:17:15;11.52;;;3.03;;
55758;SDS011;41678;52.126;20.664;2023-09-30T15:22:35;16.55;;;2.85;;
55758;SDS011;41678;52.126;20.664;2023-09-30T15:27:55;18.57;;;3.47;;
55758;SDS011;41678;52.126;20.664;2023-09-30T15:33:15;15.55;;;3.15;;
55758;SDS011;41678;52.126;20.664;2023-09-30T15:38:35;13.48;;;3.75;;
55758;SDS011;41678;52.126;20.664;2023-09-30T15:43:59;11.07;;;2.90;;
55758;SDS011;41678;52.126;20.664;2023-09-30T15:49:21;21.08;;;3.92;;
55758;SDS011;41678;52.126;20.664;2023-09-30T15:54:41;11.20;;;3.10;;
55758;SDS011;41678;52.126;20.664;2023-09-30T16:00:01;16.85;;;3.30;;
55758;SDS011;41678;52.126;20.664;2023-09-30T16:05:20;12.18;;;3.08;;
55758;SDS011;41678;52.126;20.664;2023-09-30T16:10:39;13.85;;;3.45;;
55758;SDS011;41678;52.126;20.664;2023-09-30T16:15:59;11.82;;;3.15;;
55758;SDS011;41678;52.126;20.664;2023-09-30T16:21:18;11.52;;;2.63;;
55758;SDS011;41678;52.126;20.664;2023-09-30T16:26:39;13.27;;;3.15;;
55758;SDS011;41678;52.126;20.664;2023-09-30T16:31:59;18.23;;;3.17;;
55758;SDS011;41678;52.126;20.664;2023-09-30T16:37:18;12.43;;;3.72;;
55758;SDS011;41678;52.126;20.664;2023-09-30T16:42:38;19.10;;;4.18;;
55758;SDS011;41678;52.126;20.664;2023-09-30T16:47:58;13.90;;;3.30;;
55758;SDS011;41678;52.126;20.664;2023-09-30T16:53:17;15.75;;;3.40;;
55758;SDS011;41678;52.126;20.664;2023-09-30T16:58:36;15.15;;;3.55;;
55758;SDS011;41678;52.126;20.664;2023-09-30T17:03:56;14.40;;;3.75;;
55758;SDS011;41678;52.126;20.664;2023-09-30T17:09:18;15.77;;;3.65;;
55758;SDS011;41678;52.126;20.664;2023-09-30T17:14:38;14.98;;;3.92;;
55758;SDS011;41678;52.126;20.664;2023-09-30T17:19:57;13.02;;;3.88;;
55758;SDS011;41678;52.126;20.664;2023-09-30T17:25:17;21.33;;;4.03;;
55758;SDS011;41678;52.126;20.664;2023-09-30T17:30:36;14.85;;;4.10;;
55758;SDS011;41678;52.126;20.664;2023-09-30T17:36:01;27.03;;;6.27;;
55758;SDS011;41678;52.126;20.664;2023-09-30T17:41:22;30.98;;;7.95;;
55758;SDS011;41678;52.126;20.664;2023-09-30T17:46:42;28.60;;;8.00;;
55758;SDS011;41678;52.126;20.664;2023-09-30T17:52:03;22.88;;;8.05;;
55758;SDS011;41678;52.126;20.664;2023-09-30T17:57:23;25.13;;;8.82;;
55758;SDS011;41678;52.126;20.664;2023-09-30T18:02:42;19.40;;;7.43;;
55758;SDS011;41678;52.126;20.664;2023-09-30T18:08:02;27.90;;;6.90;;
55758;SDS011;41678;52.126;20.664;2023-09-30T18:13:22;21.50;;;5.28;;
55758;SDS011;41678;52.126;20.664;2023-09-30T18:18:41;16.10;;;4.20;;
55758;SDS011;41678;52.126;20.664;2023-09-30T18:24:01;15.48;;;4.63;;
55758;SDS011;41678;52.126;20.664;2023-09-30T18:29:22;18.92;;;4.60;;
55758;SDS011;41678;52.126;20.664;2023-09-30T18:34:41;21.42;;;5.03;;
55758;SDS011;41678;52.126;20.664;2023-09-30T18:40:01;17.15;;;4.43;;
55758;SDS011;41678;52.126;20.664;2023-09-30T18:45:21;13.15;;;5.05;;
55758;SDS011;41678;52.126;20.664;2023-09-30T18:50:42;17.70;;;5.03;;
55758;SDS011;41678;52.126;20.664;2023-09-30T18:56:04;12.95;;;3.90;;
55758;SDS011;41678;52.126;20.664;2023-09-30T19:01:25;15.63;;;3.67;;
55758;SDS011;41678;52.126;20.664;2023-09-30T19:06:46;15.80;;;4.20;;
55758;SDS011;41678;52.126;20.664;2023-09-30T19:12:06;13.93;;;4.70;;
55758;SDS011;41678;52.126;20.664;2023-09-30T19:17:26;17.30;;;5.28;;
55758;SDS011;41678;52.126;20.664;2023-09-30T19:22:46;15.95;;;5.00;;
55758;SDS011;41678;52.126;20.664;2023-09-30T19:28:06;14.52;;;6.00;;
55758;SDS011;41678;52.126;20.664;2023-09-30T19:33:26;15.10;;;4.70;;
55758;SDS011;41678;52.126;20.664;2023-09-30T19:38:47;17.43;;;4.63;;
55758;SDS011;41678;52.126;20.664;2023-09-30T19:44:07;18.35;;;3.95;;
55758;SDS011;41678;52.126;20.664;2023-09-30T19:49:29;15.85;;;4.68;;
55758;SDS011;41678;52.126;20.664;2023-09-30T20:00:10;16.10;;;3.60;;
55758;SDS011;41678;52.126;20.664;2023-09-30T20:05:30;19.77;;;3.93;;
55758;SDS011;41678;52.126;20.664;2023-09-30T20:10:50;14.45;;;4.07;;
55758;SDS011;41678;52.126;20.664;2023-09-30T20:22:35;16.20;;;4.05;;
55758;SDS011;41678;52.126;20.664;2023-09-30T20:27:55;18.52;;;4.72;;
55758;SDS011;41678;52.126;20.664;2023-09-30T20:33:18;16.05;;;3.42;;
55758;SDS011;41678;52.126;20.664;2023-09-30T20:38:39;16.80;;;4.43;;
55758;SDS011;41678;52.126;20.664;2023-09-30T20:43:59;16.27;;;4.07;;
55758;SDS011;41678;52.126;20.664;2023-09-30T20:49:18;20.75;;;3.67;;
55758;SDS011;41678;52.126;20.664;2023-09-30T20:54:38;13.45;;;4.03;;
55758;SDS011;41678;52.126;20.664;2023-09-30T20:59:57;12.73;;;3.97;;
55758;SDS011;41678;52.126;20.664;2023-09-30T21:05:17;13.73;;;3.95;;
55758;SDS011;41678;52.126;20.664;2023-09-30T21:10:37;12.27;;;3.30;;
55758;SDS011;41678;52.126;20.664;2023-09-30T21:15:57;12.68;;;3.42;;
55758;SDS011;41678;52.126;20.664;2023-09-30T21:21:18;12.00;;;3.72;;
55758;SDS011;41678;52.126;20.664;2023-09-30T21:26:38;12.87;;;4.17;;
55758;SDS011;41678;52.126;20.664;2023-09-30T21:31:57;14.00;;;4.97;;
55758;SDS011;41678;52.126;20.664;2023-09-30T21:37:16;15.65;;;4.45;;
55758;SDS011;41678;52.126;20.664;2023-09-30T21:42:36;18.90;;;4.22;;
55758;SDS011;41678;52.126;20.664;2023-09-30T21:47:56;12.30;;;4.13;;
55758;SDS011;41678;52.126;20.664;2023-09-30T21:53:16;13.40;;;3.90;;
55758;SDS011;41678;52.126;20.664;2023-09-30T21:58:36;13.50;;;4.13;;
55758;SDS011;41678;52.126;20.664;2023-09-30T22:03:55;15.15;;;4.68;;
55758;SDS011;41678;52.126;20.664;2023-09-30T22:09:15;16.30;;;3.65;;
55758;SDS011;41678;52.126;20.664;2023-09-30T22:14:35;17.60;;;4.28;;
55758;SDS011;41678;52.126;20.664;2023-09-30T22:19:54;11.82;;;3.78;;
55758;SDS011;41678;52.126;20.664;2023-09-30T22:25:13;18.13;;;4.60;;
55758;SDS011;41678;52.126;20.664;2023-09-30T22:30:34;16.52;;;3.70;;
55758;SDS011;41678;52.126;20.664;2023-09-30T22:35:55;15.45;;;3.90;;
55758;SDS011;41678;52.126;20.664;2023-09-30T22:41:15;17.75;;;3.75;;
55758;SDS011;41678;52.126;20.664;2023-09-30T22:46:34;12.93;;;3.70;;
55758;SDS011;41678;52.126;20.664;2023-09-30T22:51:54;13.77;;;3.75;;
55758;SDS011;41678;52.126;20.664;2023-09-30T22:57:13;16.60;;;3.95;;
55758;SDS011;41678;52.126;20.664;2023-09-30T23:02:33;13.93;;;3.28;;
55758;SDS011;41678;52.126;20.664;2023-09-30T23:07:53;15.63;;;3.97;;
55758;SDS011;41678;52.126;20.664;2023-09-30T23:13:14;11.88;;;3.30;;
55758;SDS011;41678;52.126;20.664;2023-09-30T23:18:34;21.80;;;3.72;;
55758;SDS011;41678;52.126;20.664;2023-09-30T23:23:54;13.73;;;3.50;;
55758;SDS011;41678;52.126;20.664;2023-09-30T23:29:15;13.70;;;3.95;;
55758;SDS011;41678;52.126;20.664;2023-09-30T23:34:35;14.85;;;4.13;;
55758;SDS011;41678;52.126;20.664;2023-09-30T23:39:55;21.25;;;4.45;;
55758;SDS011;41678;52.126;20.664;2023-09-30T23:45:15;17.15;;;3.72;;
55758;SDS011;41678;52.126;20.664;2023-09-30T23:50:38;16.98;;;4.55;;
55758;SDS011;41678;52.126;20.664;2023-09-30T23:55:57;19.67;;;4.15;;
